Wetterdaten: Woche 04.06.12 - 10.06.12 (KW23)
Datum Zeit Temperatur Luftfeuchte Luftdruck Niederschlag Windrichtung Sonnenschein Solar Wind
04.06.2012 00:00 12,9 C 98 % 1010,3 hPa 2,6 l/m SW 0,00 h 0 W/m 14,5 km/h (3 Bft)
04.06.2012 01:00 12,3 C 98 % 1010,2 hPa 5,2 l/m W-SW 0,00 h 0 W/m 13,0 km/h (3 Bft)
04.06.2012 02:00 11,6 C 98 % 1010,1 hPa 2,6 l/m W-SW 0,00 h 0 W/m 6,5 km/h (2 Bft)
04.06.2012 03:00 11,3 C 98 % 1009,6 hPa 0,2 l/m SW 0,00 h 0 W/m 8,2 km/h (2 Bft)
04.06.2012 04:00 11,1 C 98 % 1009,5 hPa 0,6 l/m SW 0,00 h 0 W/m 8,3 km/h (2 Bft)
04.06.2012 05:00 11,0 C 98 % 1010,0 hPa 1,0 l/m SW 0,00 h 5 W/m 4,3 km/h (1 Bft)
04.06.2012 06:00 10,9 C 98 % 1010,3 hPa 0,6 l/m SW 0,00 h 13 W/m 8,5 km/h (2 Bft)
04.06.2012 07:00 11,0 C 99 % 1010,3 hPa 0,0 l/m SW 0,00 h 42 W/m 11,7 km/h (2 Bft)
04.06.2012 08:00 11,1 C 98 % 1010,6 hPa 0,0 l/m SW 0,00 h 59 W/m 13,7 km/h (3 Bft)
04.06.2012 09:00 11,5 C 97 % 1010,7 hPa 0,0 l/m SW 0,00 h 100 W/m 10,6 km/h (2 Bft)
04.06.2012 10:00 12,5 C 95 % 1010,6 hPa 0,0 l/m S-SW 0,00 h 196 W/m 12,6 km/h (3 Bft)
04.06.2012 11:00 13,0 C 92 % 1010,3 hPa 0,6 l/m S-SW 0,08 h 237 W/m 16,9 km/h (3 Bft)
04.06.2012 12:00 13,1 C 95 % 1010,2 hPa 0,0 l/m SW 0,00 h 273 W/m 20,5 km/h (4 Bft)
04.06.2012 13:00 13,6 C 92 % 1010,2 hPa 0,0 l/m SW 0,08 h 300 W/m 18,5 km/h (3 Bft)
04.06.2012 14:00 14,0 C 90 % 1010,1 hPa 2,2 l/m W-SW 0,08 h 145 W/m 16,4 km/h (3 Bft)
04.06.2012 15:00 13,4 C 95 % 1010,2 hPa 0,0 l/m SW 0,08 h 255 W/m 16,4 km/h (3 Bft)
04.06.2012 16:00 13,4 C 93 % 1010,3 hPa 1,6 l/m SW 0,08 h 129 W/m 18,6 km/h (3 Bft)
04.06.2012 17:00 12,9 C 96 % 1010,5 hPa 1,4 l/m SW 0,00 h 150 W/m 15,2 km/h (3 Bft)
04.06.2012 18:00 14,3 C 92 % 1010,3 hPa 0,0 l/m SW 0,50 h 251 W/m 20,0 km/h (4 Bft)
04.06.2012 19:00 13,7 C 90 % 1010,4 hPa 0,0 l/m SW 0,25 h 86 W/m 17,6 km/h (3 Bft)
04.06.2012 20:00 12,7 C 87 % 1010,7 hPa 0,0 l/m W-SW 0,08 h 31 W/m 12,4 km/h (3 Bft)
04.06.2012 21:00 11,8 C 86 % 1011,4 hPa 0,0 l/m W-SW 0,00 h 6 W/m 12,9 km/h (3 Bft)
04.06.2012 22:00 12,0 C 85 % 1012,0 hPa 0,0 l/m W-SW 0,00 h 0 W/m 14,9 km/h (3 Bft)
04.06.2012 23:00 11,7 C 86 % 1012,1 hPa 0,0 l/m W-SW 0,00 h 0 W/m 15,4 km/h (3 Bft)
05.06.2012 00:00 11,2 C 87 % 1012,2 hPa 0,0 l/m W-SW 0,00 h 0 W/m 16,2 km/h (3 Bft)
05.06.2012 01:00 11,0 C 90 % 1012,3 hPa 1,8 l/m W 0,00 h 0 W/m 15,4 km/h (3 Bft)
05.06.2012 02:00 9,7 C 94 % 1012,4 hPa 1,0 l/m W 0,00 h 0 W/m 18,8 km/h (3 Bft)
05.06.2012 03:00 9,1 C 94 % 1012,9 hPa 0,0 l/m W-NW 0,00 h 0 W/m 15,3 km/h (3 Bft)
05.06.2012 04:00 8,5 C 91 % 1013,7 hPa 0,0 l/m W-NW 0,00 h 0 W/m 13,3 km/h (3 Bft)
05.06.2012 05:00 7,7 C 91 % 1014,7 hPa 0,0 l/m N-NW 0,00 h 8 W/m 17,4 km/h (3 Bft)
05.06.2012 06:00 7,0 C 90 % 1016,0 hPa 0,0 l/m N 0,00 h 20 W/m 12,1 km/h (2 Bft)
05.06.2012 07:00 6,9 C 90 % 1016,9 hPa 0,0 l/m N-NW 0,00 h 36 W/m 6,8 km/h (2 Bft)
05.06.2012 08:00 7,2 C 88 % 1017,6 hPa 0,0 l/m NO 0,00 h 65 W/m 7,2 km/h (2 Bft)
05.06.2012 09:00 7,8 C 83 % 1017,9 hPa 0,0 l/m O-NO 0,00 h 166 W/m 5,7 km/h (1 Bft)
05.06.2012 10:00 9,1 C 77 % 1018,2 hPa 0,0 l/m N-NO 0,25 h 384 W/m 5,9 km/h (2 Bft)
05.06.2012 11:00 11,0 C 67 % 1018,1 hPa 0,0 l/m NO 0,17 h 430 W/m 6,2 km/h (2 Bft)
05.06.2012 12:00 11,7 C 63 % 1018,0 hPa 0,0 l/m N-NO 0,08 h 379 W/m 7,1 km/h (2 Bft)
05.06.2012 13:00 13,0 C 63 % 1017,6 hPa 0,0 l/m O 0,33 h 611 W/m 6,1 km/h (2 Bft)
05.06.2012 14:00 13,5 C 59 % 1017,2 hPa 0,0 l/m O 0,33 h 432 W/m 9,3 km/h (2 Bft)
05.06.2012 15:00 15,5 C 55 % 1016,7 hPa 0,0 l/m SO 1,00 h 877 W/m 9,7 km/h (2 Bft)
05.06.2012 16:00 15,7 C 53 % 1016,1 hPa 0,0 l/m N-NW 1,00 h 736 W/m 8,2 km/h (2 Bft)
05.06.2012 17:00 16,2 C 51 % 1015,3 hPa 0,0 l/m S 1,00 h 579 W/m 8,0 km/h (2 Bft)
05.06.2012 18:00 16,0 C 52 % 1014,6 hPa 0,0 l/m O-SO 1,00 h 383 W/m 9,6 km/h (2 Bft)
05.06.2012 19:00 15,4 C 54 % 1014,3 hPa 0,0 l/m O-SO 0,75 h 198 W/m 6,8 km/h (2 Bft)
05.06.2012 20:00 13,5 C 67 % 1014,1 hPa 0,0 l/m O-SO 0,25 h 34 W/m 2,7 km/h (1 Bft)
05.06.2012 21:00 10,7 C 82 % 1014,1 hPa 0,0 l/m N 0,00 h 6 W/m 0,3 km/h (0 Bft)
05.06.2012 22:00 9,4 C 87 % 1013,9 hPa 0,0 l/m N 0,00 h 0 W/m 0,7 km/h (0 Bft)
05.06.2012 23:00 8,8 C 89 % 1013,2 hPa 0,0 l/m N 0,00 h 0 W/m 0,1 km/h (0 Bft)
06.06.2012 00:00 8,6 C 91 % 1012,3 hPa 0,0 l/m N 0,00 h 0 W/m 0,1 km/h (0 Bft)
06.06.2012 01:00 9,3 C 87 % 1011,7 hPa 0,0 l/m O 0,00 h 0 W/m 4,1 km/h (1 Bft)
06.06.2012 02:00 9,2 C 88 % 1011,5 hPa 0,0 l/m N-NO 0,00 h 0 W/m 6,3 km/h (2 Bft)
06.06.2012 03:00 9,0 C 89 % 1011,1 hPa 0,0 l/m N 0,00 h 0 W/m 3,5 km/h (1 Bft)
06.06.2012 04:00 8,9 C 89 % 1010,3 hPa 0,0 l/m N-NO 0,00 h 0 W/m 3,2 km/h (1 Bft)
06.06.2012 05:00 8,6 C 91 % 1010,4 hPa 0,0 l/m N-NO 0,00 h 8 W/m 5,7 km/h (1 Bft)
06.06.2012 06:00 8,8 C 89 % 1010,3 hPa 0,0 l/m N-NO 0,00 h 37 W/m 2,0 km/h (1 Bft)
06.06.2012 07:00 9,5 C 89 % 1010,0 hPa 0,0 l/m N 0,00 h 75 W/m 1,2 km/h (1 Bft)
06.06.2012 08:00 10,6 C 88 % 1010,2 hPa 0,0 l/m N-NO 0,00 h 92 W/m 2,0 km/h (1 Bft)
06.06.2012 09:00 11,7 C 91 % 1010,2 hPa 0,0 l/m W-NW 0,00 h 135 W/m 2,3 km/h (1 Bft)
06.06.2012 10:00 13,5 C 90 % 1010,0 hPa 0,0 l/m SW 0,00 h 185 W/m 9,8 km/h (2 Bft)
06.06.2012 11:00 15,0 C 85 % 1009,8 hPa 0,0 l/m SW 0,08 h 273 W/m 18,8 km/h (3 Bft)
06.06.2012 12:00 15,9 C 80 % 1009,1 hPa 0,0 l/m SW 0,25 h 489 W/m 24,7 km/h (4 Bft)
06.06.2012 13:00 17,4 C 75 % 1008,7 hPa 0,0 l/m W-SW 0,08 h 378 W/m 22,0 km/h (4 Bft)
06.06.2012 14:00 17,4 C 74 % 1008,6 hPa 0,2 l/m W-SW 0,00 h 152 W/m 20,1 km/h (4 Bft)
06.06.2012 15:00 15,1 C 87 % 1009,1 hPa 0,8 l/m SW 0,00 h 94 W/m 16,8 km/h (3 Bft)
06.06.2012 16:00 14,8 C 89 % 1009,1 hPa 0,0 l/m W-SW 0,00 h 129 W/m 26,0 km/h (4 Bft)
06.06.2012 17:00 15,3 C 87 % 1009,0 hPa 0,0 l/m W-SW 0,00 h 140 W/m 23,6 km/h (4 Bft)
06.06.2012 18:00 15,5 C 87 % 1008,9 hPa 0,0 l/m SW 0,00 h 99 W/m 22,4 km/h (4 Bft)
06.06.2012 19:00 15,8 C 87 % 1009,2 hPa 0,0 l/m W-SW 0,33 h 135 W/m 18,8 km/h (3 Bft)
06.06.2012 20:00 15,2 C 89 % 1009,3 hPa 0,0 l/m SW 0,00 h 34 W/m 12,4 km/h (3 Bft)
06.06.2012 21:00 14,4 C 90 % 1009,5 hPa 0,0 l/m W-SW 0,08 h 7 W/m 14,0 km/h (3 Bft)
06.06.2012 22:00 13,9 C 91 % 1010,0 hPa 0,0 l/m W-SW 0,00 h 0 W/m 14,6 km/h (3 Bft)
06.06.2012 23:00 13,8 C 91 % 1010,1 hPa 0,0 l/m W-SW 0,00 h 0 W/m 12,5 km/h (3 Bft)
07.06.2012 00:00 12,3 C 94 % 1010,0 hPa 0,0 l/m N 0,00 h 0 W/m 2,5 km/h (1 Bft)
07.06.2012 01:00 11,5 C 97 % 1009,9 hPa 0,0 l/m N 0,00 h 0 W/m 0,5 km/h (0 Bft)
07.06.2012 02:00 11,5 C 97 % 1009,6 hPa 0,0 l/m N 0,00 h 0 W/m 0,0 km/h (0 Bft)
07.06.2012 03:00 11,2 C 97 % 1009,3 hPa 0,0 l/m N 0,00 h 0 W/m 0,0 km/h (0 Bft)
07.06.2012 04:00 11,0 C 98 % 1009,0 hPa 0,0 l/m N 0,00 h 0 W/m 0,0 km/h (0 Bft)
07.06.2012 05:00 11,0 C 98 % 1008,8 hPa 0,0 l/m N 0,00 h 9 W/m 0,0 km/h (0 Bft)
07.06.2012 06:00 11,5 C 98 % 1008,5 hPa 0,0 l/m N 0,00 h 36 W/m 0,0 km/h (0 Bft)
07.06.2012 07:00 12,8 C 96 % 1008,2 hPa 0,0 l/m N 0,17 h 110 W/m 0,0 km/h (0 Bft)
07.06.2012 08:00 14,5 C 90 % 1008,1 hPa 0,0 l/m N 0,00 h 141 W/m 0,0 km/h (0 Bft)
07.06.2012 09:00 16,3 C 84 % 1007,8 hPa 0,0 l/m N 0,50 h 356 W/m 0,0 km/h (0 Bft)
07.06.2012 10:00 19,0 C 77 % 1007,0 hPa 0,0 l/m SW 0,58 h 524 W/m 4,1 km/h (1 Bft)
07.06.2012 11:00 20,6 C 67 % 1006,3 hPa 0,0 l/m SW 0,17 h 365 W/m 7,8 km/h (2 Bft)
07.06.2012 12:00 21,8 C 62 % 1006,0 hPa 0,0 l/m W-SW 0,33 h 465 W/m 6,1 km/h (2 Bft)
07.06.2012 13:00 21,3 C 65 % 1005,3 hPa 0,0 l/m SO 0,08 h 293 W/m 6,0 km/h (2 Bft)
07.06.2012 14:00 23,1 C 59 % 1003,9 hPa 0,0 l/m S-SO 0,50 h 564 W/m 7,4 km/h (2 Bft)
07.06.2012 15:00 23,5 C 57 % 1003,0 hPa 0,0 l/m O-NO 0,42 h 483 W/m 4,7 km/h (1 Bft)
07.06.2012 16:00 25,3 C 52 % 1001,8 hPa 0,0 l/m O 1,00 h 619 W/m 12,2 km/h (2 Bft)
07.06.2012 17:00 25,1 C 52 % 1001,3 hPa 0,0 l/m O 0,00 h 175 W/m 7,8 km/h (2 Bft)
07.06.2012 18:00 24,1 C 57 % 1000,8 hPa 0,0 l/m O 0,08 h 109 W/m 4,7 km/h (1 Bft)
07.06.2012 19:00 22,3 C 70 % 1000,2 hPa 0,4 l/m N 0,00 h 25 W/m 1,6 km/h (1 Bft)
07.06.2012 20:00 17,9 C 90 % 1004,3 hPa 9,6 l/m W-NW 0,00 h 0 W/m 26,7 km/h (4 Bft)
07.06.2012 21:00 15,8 C 94 % 1005,6 hPa 2,0 l/m SW 0,00 h 0 W/m 7,0 km/h (2 Bft)
07.06.2012 22:00 15,7 C 97 % 1006,9 hPa 4,4 l/m SW 0,00 h 0 W/m 19,2 km/h (3 Bft)
07.06.2012 23:00 15,4 C 98 % 1006,5 hPa 1,2 l/m SW 0,00 h 0 W/m 19,7 km/h (3 Bft)
08.06.2012 00:00 15,1 C 98 % 1006,7 hPa 2,0 l/m SW 0,00 h 0 W/m 18,8 km/h (3 Bft)
08.06.2012 01:00 15,0 C 98 % 1007,0 hPa 0,8 l/m W-SW 0,00 h 0 W/m 17,0 km/h (3 Bft)
08.06.2012 02:00 15,0 C 98 % 1006,8 hPa 0,8 l/m SW 0,00 h 0 W/m 15,0 km/h (3 Bft)
08.06.2012 03:00 14,8 C 99 % 1006,4 hPa 0,0 l/m SW 0,00 h 0 W/m 9,9 km/h (2 Bft)
08.06.2012 04:00 14,7 C 99 % 1006,9 hPa 6,0 l/m SW 0,00 h 0 W/m 13,0 km/h (3 Bft)
08.06.2012 05:00 14,2 C 99 % 1007,6 hPa 1,6 l/m SW 0,00 h 9 W/m 8,3 km/h (2 Bft)
08.06.2012 06:00 14,3 C 99 % 1007,4 hPa 0,4 l/m SW 0,00 h 17 W/m 9,1 km/h (2 Bft)
08.06.2012 07:00 14,7 C 99 % 1007,5 hPa 1,4 l/m SW 0,00 h 45 W/m 16,6 km/h (3 Bft)
08.06.2012 08:00 15,0 C 99 % 1007,9 hPa 0,0 l/m S-SW 0,08 h 133 W/m 16,5 km/h (3 Bft)
08.06.2012 09:00 15,3 C 96 % 1007,8 hPa 0,0 l/m S-SW 0,00 h 129 W/m 13,3 km/h (3 Bft)
08.06.2012 10:00 15,0 C 96 % 1008,2 hPa 0,8 l/m SW 0,00 h 90 W/m 8,7 km/h (2 Bft)
08.06.2012 11:00 15,2 C 97 % 1008,6 hPa 2,0 l/m W-SW 0,00 h 103 W/m 8,6 km/h (2 Bft)
08.06.2012 12:00 15,8 C 97 % 1008,2 hPa 0,6 l/m W-SW 0,00 h 162 W/m 6,9 km/h (2 Bft)
08.06.2012 13:00 15,5 C 97 % 1008,9 hPa 3,2 l/m SW 0,00 h 49 W/m 7,9 km/h (2 Bft)
08.06.2012 14:00 15,3 C 98 % 1009,5 hPa 3,4 l/m S-SW 0,00 h 143 W/m 7,2 km/h (2 Bft)
08.06.2012 15:00 16,4 C 94 % 1009,7 hPa 0,0 l/m W-SW 0,08 h 275 W/m 8,1 km/h (2 Bft)
08.06.2012 16:00 14,8 C 94 % 1010,9 hPa 6,0 l/m W-NW 0,00 h 94 W/m 8,7 km/h (2 Bft)
08.06.2012 17:00 14,4 C 95 % 1011,3 hPa 0,0 l/m SW 0,00 h 77 W/m 6,7 km/h (2 Bft)
08.06.2012 18:00 13,8 C 96 % 1011,7 hPa 2,0 l/m SW 0,00 h 37 W/m 14,6 km/h (3 Bft)
08.06.2012 19:00 12,9 C 96 % 1011,8 hPa 0,0 l/m SW 0,00 h 39 W/m 19,2 km/h (3 Bft)
08.06.2012 20:00 12,0 C 95 % 1012,3 hPa 0,2 l/m S-SW 0,00 h 18 W/m 17,3 km/h (3 Bft)
08.06.2012 21:00 11,4 C 96 % 1012,8 hPa 0,2 l/m S-SW 0,00 h 6 W/m 9,8 km/h (2 Bft)
08.06.2012 22:00 11,3 C 97 % 1013,3 hPa 0,0 l/m SW 0,00 h 0 W/m 14,6 km/h (3 Bft)
08.06.2012 23:00 11,3 C 97 % 1013,3 hPa 0,0 l/m SW 0,00 h 0 W/m 12,1 km/h (2 Bft)
09.06.2012 00:00 11,4 C 96 % 1013,6 hPa 0,0 l/m SW 0,00 h 0 W/m 14,4 km/h (3 Bft)
09.06.2012 01:00 11,4 C 96 % 1013,9 hPa 0,0 l/m SW 0,00 h 0 W/m 14,2 km/h (3 Bft)
09.06.2012 02:00 11,2 C 95 % 1014,0 hPa 0,0 l/m S 0,00 h 0 W/m 8,4 km/h (2 Bft)
09.06.2012 03:00 11,0 C 96 % 1014,1 hPa 0,2 l/m S 0,00 h 0 W/m 6,7 km/h (2 Bft)
09.06.2012 04:00 10,9 C 97 % 1014,1 hPa 0,0 l/m S 0,00 h 0 W/m 4,5 km/h (1 Bft)
09.06.2012 05:00 11,0 C 97 % 1014,4 hPa 0,2 l/m S 0,00 h 5 W/m 2,8 km/h (1 Bft)
09.06.2012 06:00 11,0 C 97 % 1014,7 hPa 0,0 l/m S 0,00 h 12 W/m 4,8 km/h (1 Bft)
09.06.2012 07:00 11,1 C 97 % 1015,0 hPa 0,0 l/m N 0,00 h 28 W/m 2,9 km/h (1 Bft)
09.06.2012 08:00 11,5 C 97 % 1015,3 hPa 0,0 l/m S-SO 0,00 h 67 W/m 5,8 km/h (1 Bft)
09.06.2012 09:00 12,6 C 96 % 1015,3 hPa 0,0 l/m S-SW 0,00 h 141 W/m 11,0 km/h (2 Bft)
09.06.2012 10:00 13,3 C 93 % 1015,4 hPa 0,0 l/m S-SW 0,00 h 187 W/m 12,9 km/h (3 Bft)
09.06.2012 11:00 14,2 C 90 % 1015,2 hPa 0,0 l/m S-SW 0,17 h 332 W/m 16,4 km/h (3 Bft)
09.06.2012 12:00 15,9 C 83 % 1014,9 hPa 0,0 l/m SW 0,50 h 609 W/m 19,8 km/h (4 Bft)
09.06.2012 13:00 17,2 C 75 % 1014,6 hPa 0,0 l/m SW 0,75 h 882 W/m 23,4 km/h (4 Bft)
09.06.2012 14:00 17,8 C 71 % 1014,1 hPa 0,0 l/m SW 0,58 h 631 W/m 20,9 km/h (4 Bft)
09.06.2012 15:00 18,9 C 67 % 1013,5 hPa 0,0 l/m S-SW 0,83 h 717 W/m 19,8 km/h (4 Bft)
09.06.2012 16:00 19,6 C 61 % 1012,9 hPa 0,0 l/m W 0,92 h 713 W/m 18,1 km/h (3 Bft)
09.06.2012 17:00 19,6 C 56 % 1012,5 hPa 0,0 l/m SW 0,92 h 585 W/m 14,5 km/h (3 Bft)
09.06.2012 18:00 19,0 C 57 % 1012,3 hPa 0,0 l/m W-SW 0,67 h 310 W/m 11,4 km/h (2 Bft)
09.06.2012 19:00 17,6 C 64 % 1012,3 hPa 0,0 l/m W-SW 0,08 h 88 W/m 5,8 km/h (1 Bft)
09.06.2012 20:00 16,2 C 74 % 1012,2 hPa 0,0 l/m N 0,00 h 21 W/m 3,5 km/h (1 Bft)
09.06.2012 21:00 15,3 C 69 % 1012,2 hPa 0,0 l/m W 0,00 h 5 W/m 4,8 km/h (1 Bft)
09.06.2012 22:00 13,9 C 73 % 1012,2 hPa 0,0 l/m N-NO 0,00 h 0 W/m 6,4 km/h (2 Bft)
09.06.2012 23:00 13,8 C 70 % 1012,4 hPa 0,0 l/m N-NO 0,00 h 0 W/m 8,2 km/h (2 Bft)
10.06.2012 00:00 12,7 C 77 % 1012,7 hPa 1,0 l/m N-NO 0,00 h 0 W/m 4,5 km/h (1 Bft)
10.06.2012 01:00 10,8 C 92 % 1012,8 hPa 0,2 l/m W-NW 0,00 h 0 W/m 3,3 km/h (1 Bft)
10.06.2012 02:00 10,3 C 95 % 1012,5 hPa 0,0 l/m N 0,00 h 0 W/m 3,1 km/h (1 Bft)
10.06.2012 03:00 10,0 C 95 % 1012,5 hPa 0,0 l/m N 0,00 h 0 W/m 1,5 km/h (1 Bft)
10.06.2012 04:00 10,0 C 96 % 1012,1 hPa 0,2 l/m N 0,00 h 0 W/m 2,1 km/h (1 Bft)
10.06.2012 05:00 10,0 C 96 % 1012,4 hPa 0,0 l/m N 0,00 h 6 W/m 2,0 km/h (1 Bft)
10.06.2012 06:00 10,1 C 96 % 1012,4 hPa 0,0 l/m N 0,00 h 17 W/m 4,3 km/h (1 Bft)
10.06.2012 07:00 10,6 C 94 % 1012,4 hPa 0,0 l/m N 0,00 h 48 W/m 2,0 km/h (1 Bft)
10.06.2012 08:00 11,2 C 92 % 1012,4 hPa 0,0 l/m W-NW 0,00 h 65 W/m 3,9 km/h (1 Bft)
10.06.2012 09:00 11,4 C 86 % 1012,3 hPa 0,0 l/m W-NW 0,00 h 75 W/m 5,7 km/h (1 Bft)
10.06.2012 10:00 11,6 C 80 % 1011,9 hPa 0,0 l/m NW 0,00 h 143 W/m 5,1 km/h (1 Bft)
10.06.2012 11:00 12,5 C 75 % 1011,2 hPa 0,0 l/m O-SO 0,00 h 201 W/m 6,5 km/h (2 Bft)
10.06.2012 12:00 13,3 C 74 % 1010,7 hPa 0,0 l/m O 0,00 h 252 W/m 6,7 km/h (2 Bft)
10.06.2012 13:00 13,3 C 77 % 1010,5 hPa 0,0 l/m SW 0,00 h 184 W/m 5,5 km/h (1 Bft)
10.06.2012 14:00 14,4 C 74 % 1009,3 hPa 0,0 l/m SW 0,25 h 432 W/m 5,9 km/h (2 Bft)
10.06.2012 15:00 15,3 C 68 % 1008,7 hPa 0,0 l/m S 0,42 h 435 W/m 6,7 km/h (2 Bft)
10.06.2012 16:00 16,3 C 65 % 1008,1 hPa 0,0 l/m SW 0,83 h 556 W/m 8,3 km/h (2 Bft)
10.06.2012 17:00 17,0 C 61 % 1007,1 hPa 0,0 l/m SO 0,75 h 449 W/m 9,7 km/h (2 Bft)
10.06.2012 18:00 16,3 C 64 % 1006,6 hPa 0,0 l/m SO 0,00 h 157 W/m 6,3 km/h (2 Bft)
10.06.2012 19:00 15,7 C 66 % 1006,3 hPa 0,0 l/m O 0,00 h 55 W/m 3,6 km/h (1 Bft)
10.06.2012 20:00 15,0 C 74 % 1006,1 hPa 0,0 l/m O 0,00 h 17 W/m 4,4 km/h (1 Bft)
10.06.2012 21:00 13,5 C 85 % 1006,0 hPa 0,0 l/m N 0,00 h 5 W/m 0,1 km/h (0 Bft)
10.06.2012 22:00 12,8 C 90 % 1006,0 hPa 0,0 l/m N 0,00 h 0 W/m 0,0 km/h (0 Bft)
10.06.2012 23:00 12,5 C 92 % 1005,6 hPa 0,0 l/m N 0,00 h 0 W/m 0,0 km/h (0 Bft)
Min-Datum _ 05.06.12 05.06.12 07.06.12 - - - - 04.06.12
_ Min-Zeit 06:25 16:55 19:30 - - - - 06:00
Minimum _ 6,8 C 48 % 999,8 hPa - - - - 0,0 km/h (0 Bft)
Max-Datum _ 07.06.12 08.06.12 05.06.12 07.06.12 - 04.06.12 04.06.12 07.06.12
_ Max-Zeit 16:45 14:35 10:35 20:05 - 11:15 14:00 20:45
Maximum _ 25,9 C 100 % 1018,3 hPa 9,6 l/m - 0,08 h 1297 W/m 38,6 km/h
W (5 Bft)
Durchschnitt _ 13,6 C 86 % 1010,7 hPa #73,2 l/m SW #19:55 h 207 W/m 9,6 km/h (2 Bft)